Details for EasyJet at EGCC




Go Back


Latest METAR
Local Time

EGCC 221020Z AUTO 21005KT 9999 NCD 11/08 Q1017 NOSIG
22/09/2018, 11:46:45

Description
Results
EasyJet Logo
Number of Pilots based at EGCC
1 Pilots Based here
Number of EasyJet Flights Departed from EGCC
14 Flights Departed
Number of EasyJet Flights Arrived at EGCC
10 Flights Arrived
Number of EasyJet Schedules Departing from EGCC
129 Schedules
Number of EasyJet Schedules Arriving at EGCC
127 Schedules
Number of EasyJet Schedules Departing from EGCC availible today
35 Schedules Today
Number of EasyJet Schedules Arriving at EGCC availible today
35 Schedules Today
Average Landing Rate at EGCC
-201 fpm
EasyJet Average Landing Rate at EGCC
-229 fpm
Total Fuel Purchased at EGCC by EasyJet
44,169.92 kgs / 97,377.01 lbs

Pilots Based at EGCC


Pilot ID
Pilot Name
Pilot Rank
No. of Flights
No. of Flying Hours
Andrew Sutcliffe
444
1677.31
Content